sensor_id;sensor_type;location;lat;lon;timestamp;pressure;altitude;pressure_sealevel;temperature;humidity
28267;BME280;15525;45.568;5.448;2022-09-03T00:00:27;97658.13;;;25.42;55.00
28267;BME280;15525;45.568;5.448;2022-09-03T00:03:03;97657.81;;;25.47;54.83
28267;BME280;15525;45.568;5.448;2022-09-03T00:05:44;97668.28;;;25.38;55.40
28267;BME280;15525;45.568;5.448;2022-09-03T00:08:29;97680.59;;;25.25;55.48
28267;BME280;15525;45.568;5.448;2022-09-03T00:11:28;97685.78;;;25.30;55.44
28267;BME280;15525;45.568;5.448;2022-09-03T00:14:02;97686.09;;;25.25;55.19
28267;BME280;15525;45.568;5.448;2022-09-03T00:16:37;97675.03;;;25.18;55.51
28267;BME280;15525;45.568;5.448;2022-09-03T00:19:05;97682.50;;;25.21;55.00
28267;BME280;15525;45.568;5.448;2022-09-03T00:21:44;97677.22;;;25.35;55.52
28267;BME280;15525;45.568;5.448;2022-09-03T00:24:13;97691.91;;;25.20;55.34
28267;BME280;15525;45.568;5.448;2022-09-03T00:26:43;97700.25;;;25.01;55.88
28267;BME280;15525;45.568;5.448;2022-09-03T00:29:20;97692.13;;;25.08;56.11
28267;BME280;15525;45.568;5.448;2022-09-03T00:31:55;97672.22;;;25.11;56.01
28267;BME280;15525;45.568;5.448;2022-09-03T00:34:45;97674.22;;;25.14;55.82
28267;BME280;15525;45.568;5.448;2022-09-03T00:37:10;97679.19;;;25.05;55.77
28267;BME280;15525;45.568;5.448;2022-09-03T00:39:36;97685.88;;;25.07;55.77
28267;BME280;15525;45.568;5.448;2022-09-03T00:42:13;97667.09;;;25.09;55.81
28267;BME280;15525;45.568;5.448;2022-09-03T00:55:42;97693.63;;;24.76;56.46
28267;BME280;15525;45.568;5.448;2022-09-03T01:00:58;97690.53;;;24.77;56.19
28267;BME280;15525;45.568;5.448;2022-09-03T01:03:39;97706.13;;;24.73;56.13
28267;BME280;15525;45.568;5.448;2022-09-03T01:06:18;97693.53;;;24.69;56.45
28267;BME280;15525;45.568;5.448;2022-09-03T01:09:29;97692.78;;;24.72;56.85
28267;BME280;15525;45.568;5.448;2022-09-03T01:25:52;97688.91;;;24.73;56.33
28267;BME280;15525;45.568;5.448;2022-09-03T01:50:54;97673.72;;;24.53;56.85
28267;BME280;15525;45.568;5.448;2022-09-03T01:56:27;97663.66;;;24.34;57.31
28267;BME280;15525;45.568;5.448;2022-09-03T02:01:32;97669.19;;;24.38;57.54
28267;BME280;15525;45.568;5.448;2022-09-03T02:04:01;97676.72;;;24.44;57.33
28267;BME280;15525;45.568;5.448;2022-09-03T02:06:37;97674.47;;;24.50;57.03
28267;BME280;15525;45.568;5.448;2022-09-03T02:09:03;97667.91;;;24.58;56.81
28267;BME280;15525;45.568;5.448;2022-09-03T02:11:29;97661.22;;;24.55;56.50
28267;BME280;15525;45.568;5.448;2022-09-03T02:13:55;97662.00;;;24.52;56.84
28267;BME280;15525;45.568;5.448;2022-09-03T02:16:27;97664.41;;;24.57;56.74
28267;BME280;15525;45.568;5.448;2022-09-03T02:19:00;97651.97;;;24.60;56.64
28267;BME280;15525;45.568;5.448;2022-09-03T02:21:33;97673.09;;;24.63;56.58
28267;BME280;15525;45.568;5.448;2022-09-03T02:23:59;97656.91;;;24.54;56.77
28267;BME280;15525;45.568;5.448;2022-09-03T02:26:25;97664.34;;;24.54;56.70
28267;BME280;15525;45.568;5.448;2022-09-03T02:28:52;97677.66;;;24.55;56.58
28267;BME280;15525;45.568;5.448;2022-09-03T02:31:18;97666.66;;;24.52;56.55
28267;BME280;15525;45.568;5.448;2022-09-03T02:33:46;97657.19;;;24.46;56.40
28267;BME280;15525;45.568;5.448;2022-09-03T02:36:14;97666.13;;;24.43;56.84
28267;BME280;15525;45.568;5.448;2022-09-03T02:38:42;97657.88;;;24.39;56.80
28267;BME280;15525;45.568;5.448;2022-09-03T02:41:08;97656.22;;;24.35;56.88
28267;BME280;15525;45.568;5.448;2022-09-03T02:43:38;97667.63;;;24.37;56.52
28267;BME280;15525;45.568;5.448;2022-09-03T02:46:09;97678.97;;;24.39;56.60
28267;BME280;15525;45.568;5.448;2022-09-03T02:48:38;97685.38;;;24.24;56.79
28267;BME280;15525;45.568;5.448;2022-09-03T02:51:03;97680.94;;;24.16;56.78
28267;BME280;15525;45.568;5.448;2022-09-03T02:53:29;97692.75;;;24.20;56.73
28267;BME280;15525;45.568;5.448;2022-09-03T02:56:00;97687.25;;;24.20;56.80
28267;BME280;15525;45.568;5.448;2022-09-03T02:58:26;97688.06;;;24.20;56.61
28267;BME280;15525;45.568;5.448;2022-09-03T03:00:52;97686.34;;;24.12;56.89
28267;BME280;15525;45.568;5.448;2022-09-03T03:03:18;97704.34;;;24.13;56.83
28267;BME280;15525;45.568;5.448;2022-09-03T03:05:48;97696.41;;;24.05;57.03
28267;BME280;15525;45.568;5.448;2022-09-03T03:08:14;97697.97;;;24.06;56.84
28267;BME280;15525;45.568;5.448;2022-09-03T03:10:41;97697.97;;;24.06;56.82
28267;BME280;15525;45.568;5.448;2022-09-03T03:13:10;97706.88;;;24.03;57.10
28267;BME280;15525;45.568;5.448;2022-09-03T03:15:36;97706.47;;;24.01;57.15
28267;BME280;15525;45.568;5.448;2022-09-03T03:18:02;97705.75;;;24.04;56.90
28267;BME280;15525;45.568;5.448;2022-09-03T03:20:27;97711.66;;;24.06;56.71
28267;BME280;15525;45.568;5.448;2022-09-03T03:22:53;97718.69;;;24.07;56.66
28267;BME280;15525;45.568;5.448;2022-09-03T03:25:19;97707.03;;;24.10;56.71
28267;BME280;15525;45.568;5.448;2022-09-03T03:27:44;97709.41;;;24.11;56.48
28267;BME280;15525;45.568;5.448;2022-09-03T03:30:10;97713.56;;;24.05;56.81
28267;BME280;15525;45.568;5.448;2022-09-03T03:32:36;97707.19;;;23.98;56.77
28267;BME280;15525;45.568;5.448;2022-09-03T03:35:03;97710.72;;;23.98;57.01
28267;BME280;15525;45.568;5.448;2022-09-03T03:37:29;97706.34;;;23.94;57.06
28267;BME280;15525;45.568;5.448;2022-09-03T03:39:55;97720.59;;;23.84;57.06
28267;BME280;15525;45.568;5.448;2022-09-03T03:42:20;97713.84;;;23.78;57.27
28267;BME280;15525;45.568;5.448;2022-09-03T03:44:46;97723.84;;;23.70;57.67
28267;BME280;15525;45.568;5.448;2022-09-03T03:47:11;97724.16;;;23.65;57.71
28267;BME280;15525;45.568;5.448;2022-09-03T03:49:37;97736.72;;;23.70;57.57
28267;BME280;15525;45.568;5.448;2022-09-03T03:52:03;97736.06;;;23.76;57.39
28267;BME280;15525;45.568;5.448;2022-09-03T03:54:29;97737.28;;;23.79;57.50
28267;BME280;15525;45.568;5.448;2022-09-03T03:56:55;97740.38;;;23.77;57.34
28267;BME280;15525;45.568;5.448;2022-09-03T03:59:20;97743.94;;;23.59;57.80
28267;BME280;15525;45.568;5.448;2022-09-03T04:01:45;97749.25;;;23.52;58.05
28267;BME280;15525;45.568;5.448;2022-09-03T04:04:11;97737.97;;;23.53;58.08
28267;BME280;15525;45.568;5.448;2022-09-03T04:06:37;97733.66;;;23.52;57.97
28267;BME280;15525;45.568;5.448;2022-09-03T04:09:03;97729.75;;;23.53;57.99
28267;BME280;15525;45.568;5.448;2022-09-03T04:11:28;97732.78;;;23.48;58.06
28267;BME280;15525;45.568;5.448;2022-09-03T04:13:54;97722.72;;;23.52;58.12
28267;BME280;15525;45.568;5.448;2022-09-03T04:16:21;97722.22;;;23.47;58.11
28267;BME280;15525;45.568;5.448;2022-09-03T04:18:48;97721.06;;;23.48;58.26
28267;BME280;15525;45.568;5.448;2022-09-03T04:21:19;97728.66;;;23.58;57.95
28267;BME280;15525;45.568;5.448;2022-09-03T04:23:46;97725.56;;;23.59;58.16
28267;BME280;15525;45.568;5.448;2022-09-03T04:26:14;97722.13;;;23.62;58.09
28267;BME280;15525;45.568;5.448;2022-09-03T04:28:40;97709.53;;;23.58;58.04
28267;BME280;15525;45.568;5.448;2022-09-03T04:31:10;97728.41;;;23.63;58.23
28267;BME280;15525;45.568;5.448;2022-09-03T04:33:37;97727.66;;;23.66;58.10
28267;BME280;15525;45.568;5.448;2022-09-03T04:36:20;97722.69;;;23.71;57.92
28267;BME280;15525;45.568;5.448;2022-09-03T04:38:47;97711.06;;;23.74;57.88
28267;BME280;15525;45.568;5.448;2022-09-03T04:41:18;97727.66;;;23.66;58.23
28267;BME280;15525;45.568;5.448;2022-09-03T04:43:43;97714.22;;;23.57;58.05
28267;BME280;15525;45.568;5.448;2022-09-03T04:46:12;97712.09;;;23.47;58.50
28267;BME280;15525;45.568;5.448;2022-09-03T04:48:38;97708.25;;;23.52;58.63
28267;BME280;15525;45.568;5.448;2022-09-03T04:51:06;97719.63;;;23.54;58.68
28267;BME280;15525;45.568;5.448;2022-09-03T04:53:34;97707.03;;;23.49;58.56
28267;BME280;15525;45.568;5.448;2022-09-03T04:55:59;97712.72;;;23.60;58.45
28267;BME280;15525;45.568;5.448;2022-09-03T04:58:25;97707.38;;;23.67;57.89
28267;BME280;15525;45.568;5.448;2022-09-03T05:00:50;97704.06;;;23.77;58.01
28267;BME280;15525;45.568;5.448;2022-09-03T05:03:16;97698.97;;;23.75;58.11
28267;BME280;15525;45.568;5.448;2022-09-03T05:05:42;97711.81;;;23.75;58.13
28267;BME280;15525;45.568;5.448;2022-09-03T05:08:07;97706.66;;;23.70;58.04
28267;BME280;15525;45.568;5.448;2022-09-03T05:10:33;97709.97;;;23.60;58.37
28267;BME280;15525;45.568;5.448;2022-09-03T05:13:03;97704.94;;;23.62;58.59
28267;BME280;15525;45.568;5.448;2022-09-03T05:15:30;97704.16;;;23.61;58.30
28267;BME280;15525;45.568;5.448;2022-09-03T05:18:00;97700.22;;;23.59;58.29
28267;BME280;15525;45.568;5.448;2022-09-03T05:20:27;97687.66;;;23.58;58.16
28267;BME280;15525;45.568;5.448;2022-09-03T05:22:55;97683.97;;;23.47;58.40
28267;BME280;15525;45.568;5.448;2022-09-03T05:25:21;97684.81;;;23.51;58.26
28267;BME280;15525;45.568;5.448;2022-09-03T05:27:47;97681.38;;;23.35;58.50
28267;BME280;15525;45.568;5.448;2022-09-03T05:30:13;97689.00;;;23.45;58.42
28267;BME280;15525;45.568;5.448;2022-09-03T05:32:39;97692.72;;;23.56;58.11
28267;BME280;15525;45.568;5.448;2022-09-03T05:35:05;97691.66;;;23.60;57.98
28267;BME280;15525;45.568;5.448;2022-09-03T05:37:31;97696.06;;;23.68;57.89
28267;BME280;15525;45.568;5.448;2022-09-03T05:39:57;97701.34;;;23.77;57.59
28267;BME280;15525;45.568;5.448;2022-09-03T05:42:22;97695.56;;;23.82;57.50
28267;BME280;15525;45.568;5.448;2022-09-03T05:44:47;97707.41;;;23.89;57.14
28267;BME280;15525;45.568;5.448;2022-09-03T05:47:14;97702.38;;;23.91;57.29
28267;BME280;15525;45.568;5.448;2022-09-03T05:49:40;97712.63;;;23.94;57.13
28267;BME280;15525;45.568;5.448;2022-09-03T05:52:06;97704.47;;;23.98;57.17
28267;BME280;15525;45.568;5.448;2022-09-03T05:54:32;97697.84;;;23.99;57.33
28267;BME280;15525;45.568;5.448;2022-09-03T05:56:58;97695.53;;;24.01;57.20
28267;BME280;15525;45.568;5.448;2022-09-03T05:59:23;97694.38;;;24.02;57.06
28267;BME280;15525;45.568;5.448;2022-09-03T06:01:48;97691.53;;;23.95;57.39
28267;BME280;15525;45.568;5.448;2022-09-03T06:04:15;97693.53;;;23.79;57.72
28267;BME280;15525;45.568;5.448;2022-09-03T06:06:42;97688.31;;;23.70;57.98
28267;BME280;15525;45.568;5.448;2022-09-03T06:09:13;97688.88;;;23.79;57.79
28267;BME280;15525;45.568;5.448;2022-09-03T06:11:40;97704.63;;;23.86;57.68
28267;BME280;15525;45.568;5.448;2022-09-03T06:14:10;97704.75;;;23.93;57.50
28267;BME280;15525;45.568;5.448;2022-09-03T06:16:38;97706.03;;;23.99;57.15
28267;BME280;15525;45.568;5.448;2022-09-03T06:19:05;97708.78;;;23.99;57.20
28267;BME280;15525;45.568;5.448;2022-09-03T06:21:39;97723.69;;;24.01;57.41
28267;BME280;15525;45.568;5.448;2022-09-03T06:24:08;97719.28;;;23.97;57.52
28267;BME280;15525;45.568;5.448;2022-09-03T06:26:33;97724.88;;;23.85;57.85
28267;BME280;15525;45.568;5.448;2022-09-03T06:28:59;97718.59;;;23.81;58.08
28267;BME280;15525;45.568;5.448;2022-09-03T06:31:24;97715.78;;;23.77;58.25
28267;BME280;15525;45.568;5.448;2022-09-03T06:33:49;97709.66;;;23.84;58.18
28267;BME280;15525;45.568;5.448;2022-09-03T06:36:17;97718.66;;;23.84;58.15
28267;BME280;15525;45.568;5.448;2022-09-03T06:38:44;97707.78;;;23.88;58.21
28267;BME280;15525;45.568;5.448;2022-09-03T06:41:15;97727.44;;;23.93;58.01
28267;BME280;15525;45.568;5.448;2022-09-03T06:44:07;97722.94;;;24.04;57.85
28267;BME280;15525;45.568;5.448;2022-09-03T06:46:36;97717.53;;;24.08;57.63
28267;BME280;15525;45.568;5.448;2022-09-03T06:49:09;97716.25;;;24.02;57.61
28267;BME280;15525;45.568;5.448;2022-09-03T06:51:35;97712.03;;;24.27;57.13
28267;BME280;15525;45.568;5.448;2022-09-03T06:54:09;97718.72;;;24.55;56.79
28267;BME280;15525;45.568;5.448;2022-09-03T06:56:36;97726.44;;;24.72;56.67
28267;BME280;15525;45.568;5.448;2022-09-03T06:59:13;97726.50;;;24.76;56.20
28267;BME280;15525;45.568;5.448;2022-09-03T07:01:40;97730.09;;;24.80;56.13
28267;BME280;15525;45.568;5.448;2022-09-03T07:04:06;97722.75;;;24.87;56.20
28267;BME280;15525;45.568;5.448;2022-09-03T07:06:35;97728.09;;;24.77;56.48
28267;BME280;15525;45.568;5.448;2022-09-03T07:09:02;97727.47;;;24.87;56.49
28267;BME280;15525;45.568;5.448;2022-09-03T07:11:28;97715.00;;;24.93;56.37
28267;BME280;15525;45.568;5.448;2022-09-03T07:13:56;97713.84;;;25.23;55.77
28267;BME280;15525;45.568;5.448;2022-09-03T07:16:27;97722.09;;;25.53;55.16
28267;BME280;15525;45.568;5.448;2022-09-03T07:18:54;97710.94;;;25.72;54.73
28267;BME280;15525;45.568;5.448;2022-09-03T07:21:27;97719.09;;;25.98;54.33
28267;BME280;15525;45.568;5.448;2022-09-03T07:23:54;97722.44;;;26.17;53.87
28267;BME280;15525;45.568;5.448;2022-09-03T07:26:23;97721.59;;;26.13;54.11
28267;BME280;15525;45.568;5.448;2022-09-03T07:28:49;97723.41;;;25.99;54.66
28267;BME280;15525;45.568;5.448;2022-09-03T07:31:18;97721.09;;;26.01;54.56
28267;BME280;15525;45.568;5.448;2022-09-03T07:33:45;97734.56;;;26.16;54.26
28267;BME280;15525;45.568;5.448;2022-09-03T07:36:13;97730.78;;;26.31;53.92
28267;BME280;15525;45.568;5.448;2022-09-03T07:38:40;97733.94;;;26.33;54.08
28267;BME280;15525;45.568;5.448;2022-09-03T07:41:08;97729.22;;;26.30;53.97
28267;BME280;15525;45.568;5.448;2022-09-03T07:43:38;97751.59;;;26.36;53.99
28267;BME280;15525;45.568;5.448;2022-09-03T07:46:16;97751.44;;;26.18;54.22
28267;BME280;15525;45.568;5.448;2022-09-03T07:51:14;97761.34;;;26.30;54.08
28267;BME280;15525;45.568;5.448;2022-09-03T07:53:39;97750.78;;;26.32;53.86
28267;BME280;15525;45.568;5.448;2022-09-03T07:56:07;97759.47;;;26.41;53.65
28267;BME280;15525;45.568;5.448;2022-09-03T07:58:36;97767.78;;;26.48;53.48
28267;BME280;15525;45.568;5.448;2022-09-03T08:01:12;97782.16;;;26.74;53.22
28267;BME280;15525;45.568;5.448;2022-09-03T08:03:42;97781.22;;;27.03;52.52
28267;BME280;15525;45.568;5.448;2022-09-03T08:06:08;97782.81;;;27.11;52.18
28267;BME280;15525;45.568;5.448;2022-09-03T08:08:35;97784.81;;;27.14;52.26
28267;BME280;15525;45.568;5.448;2022-09-03T08:11:08;97793.88;;;27.15;51.74
28267;BME280;15525;45.568;5.448;2022-09-03T08:13:45;97799.03;;;27.23;51.57
28267;BME280;15525;45.568;5.448;2022-09-03T08:16:13;97801.06;;;27.33;51.44
28267;BME280;15525;45.568;5.448;2022-09-03T08:18:39;97795.16;;;27.31;51.31
28267;BME280;15525;45.568;5.448;2022-09-03T08:21:07;97805.81;;;27.36;51.27
28267;BME280;15525;45.568;5.448;2022-09-03T08:23:37;97804.25;;;27.42;51.00
28267;BME280;15525;45.568;5.448;2022-09-03T08:26:04;97808.63;;;27.50;50.81
28267;BME280;15525;45.568;5.448;2022-09-03T08:28:29;97803.03;;;27.33;50.85
28267;BME280;15525;45.568;5.448;2022-09-03T08:30:57;97810.41;;;27.22;50.74
28267;BME280;15525;45.568;5.448;2022-09-03T08:33:22;97820.91;;;27.06;50.77
28267;BME280;15525;45.568;5.448;2022-09-03T08:36:08;97821.28;;;27.08;50.59
28267;BME280;15525;45.568;5.448;2022-09-03T08:38:35;97816.72;;;27.22;50.45
28267;BME280;15525;45.568;5.448;2022-09-03T08:41:07;97823.53;;;27.46;49.96
28267;BME280;15525;45.568;5.448;2022-09-03T08:46:50;97816.66;;;27.83;48.90
28267;BME280;15525;45.568;5.448;2022-09-03T08:49:36;97832.34;;;27.79;49.47
28267;BME280;15525;45.568;5.448;2022-09-03T08:52:11;97821.69;;;27.71;49.25
28267;BME280;15525;45.568;5.448;2022-09-03T08:54:42;97826.19;;;28.07;48.95
28267;BME280;15525;45.568;5.448;2022-09-03T08:57:08;97831.34;;;28.12;48.69
28267;BME280;15525;45.568;5.448;2022-09-03T08:59:34;97828.63;;;28.29;48.59
28267;BME280;15525;45.568;5.448;2022-09-03T09:02:30;97835.03;;;28.83;47.80
28267;BME280;15525;45.568;5.448;2022-09-03T09:05:11;97833.44;;;28.92;45.66
28267;BME280;15525;45.568;5.448;2022-09-03T09:07:54;97832.69;;;29.16;45.77
28267;BME280;15525;45.568;5.448;2022-09-03T09:10:43;97839.78;;;29.10;44.98
28267;BME280;15525;45.568;5.448;2022-09-03T09:16:14;97839.59;;;28.12;46.06
28267;BME280;15525;45.568;5.448;2022-09-03T09:21:30;97835.03;;;29.18;44.56
28267;BME280;15525;45.568;5.448;2022-09-03T09:24:05;97836.22;;;29.20;44.90
28267;BME280;15525;45.568;5.448;2022-09-03T09:26:42;97837.03;;;29.07;45.29
28267;BME280;15525;45.568;5.448;2022-09-03T09:29:08;97835.06;;;29.21;45.30
28267;BME280;15525;45.568;5.448;2022-09-03T09:31:38;97827.13;;;29.44;44.11
28267;BME280;15525;45.568;5.448;2022-09-03T09:34:06;97830.19;;;29.81;43.55
28267;BME280;15525;45.568;5.448;2022-09-03T09:36:42;97827.50;;;29.46;42.90
28267;BME280;15525;45.568;5.448;2022-09-03T09:39:11;97821.56;;;29.55;43.19
28267;BME280;15525;45.568;5.448;2022-09-03T09:41:36;97816.06;;;29.69;42.71
28267;BME280;15525;45.568;5.448;2022-09-03T09:44:03;97822.69;;;29.82;42.90
28267;BME280;15525;45.568;5.448;2022-09-03T09:46:36;97822.28;;;29.87;42.09
28267;BME280;15525;45.568;5.448;2022-09-03T09:49:07;97825.81;;;29.87;41.76
28267;BME280;15525;45.568;5.448;2022-09-03T09:51:46;97828.25;;;29.75;41.72
28267;BME280;15525;45.568;5.448;2022-09-03T09:54:13;97815.97;;;29.90;42.61
28267;BME280;15525;45.568;5.448;2022-09-03T09:56:41;97818.88;;;30.41;42.08
28267;BME280;15525;45.568;5.448;2022-09-03T09:59:10;97817.72;;;30.96;41.14
28267;BME280;15525;45.568;5.448;2022-09-03T10:01:43;97812.97;;;30.97;41.25
28267;BME280;15525;45.568;5.448;2022-09-03T10:04:21;97810.00;;;30.70;41.63
28267;BME280;15525;45.568;5.448;2022-09-03T10:06:55;97805.69;;;30.69;41.59
28267;BME280;15525;45.568;5.448;2022-09-03T10:09:27;97800.25;;;30.52;41.41
28267;BME280;15525;45.568;5.448;2022-09-03T10:12:15;97804.88;;;30.69;41.42
28267;BME280;15525;45.568;5.448;2022-09-03T10:14:52;97797.94;;;30.43;41.57
28267;BME280;15525;45.568;5.448;2022-09-03T10:17:30;97794.84;;;30.89;40.87
28267;BME280;15525;45.568;5.448;2022-09-03T10:20:13;97791.28;;;30.88;40.62
28267;BME280;15525;45.568;5.448;2022-09-03T10:23:20;97794.97;;;31.19;39.81
28267;BME280;15525;45.568;5.448;2022-09-03T10:26:09;97799.66;;;31.66;39.48
28267;BME280;15525;45.568;5.448;2022-09-03T10:28:40;97792.66;;;31.54;39.61
28267;BME280;15525;45.568;5.448;2022-09-03T10:33:43;97787.84;;;31.58;38.46
28267;BME280;15525;45.568;5.448;2022-09-03T10:47:31;97790.63;;;30.05;38.14
28267;BME280;15525;45.568;5.448;2022-09-03T10:53:55;97790.66;;;29.98;38.60
28267;BME280;15525;45.568;5.448;2022-09-03T10:56:05;97780.31;;;30.81;36.81
28267;BME280;15525;45.568;5.448;2022-09-03T11:03:55;97773.59;;;32.23;35.40
28267;BME280;15525;45.568;5.448;2022-09-03T11:06:27;97773.91;;;32.29;35.41
28267;BME280;15525;45.568;5.448;2022-09-03T11:11:40;97771.84;;;33.32;33.85
28267;BME280;15525;45.568;5.448;2022-09-03T11:14:15;97771.69;;;33.39;33.60
28267;BME280;15525;45.568;5.448;2022-09-03T11:17:04;97779.75;;;33.33;34.00
28267;BME280;15525;45.568;5.448;2022-09-03T11:19:52;97761.06;;;33.14;34.13
28267;BME280;15525;45.568;5.448;2022-09-03T11:22:20;97764.09;;;33.00;34.47
28267;BME280;15525;45.568;5.448;2022-09-03T11:24:53;97747.19;;;33.14;34.11
28267;BME280;15525;45.568;5.448;2022-09-03T11:27:51;97755.84;;;33.39;32.90
28267;BME280;15525;45.568;5.448;2022-09-03T11:33:26;97751.31;;;32.30;34.37
28267;BME280;15525;45.568;5.448;2022-09-03T11:36:00;97766.25;;;31.46;35.47
28267;BME280;15525;45.568;5.448;2022-09-03T11:38:28;97764.09;;;31.61;36.58
28267;BME280;15525;45.568;5.448;2022-09-03T11:46:03;97761.56;;;32.60;34.15
28267;BME280;15525;45.568;5.448;2022-09-03T11:48:37;97752.19;;;32.27;34.32
28267;BME280;15525;45.568;5.448;2022-09-03T11:51:03;97763.16;;;32.34;34.48
28267;BME280;15525;45.568;5.448;2022-09-03T11:53:35;97743.22;;;32.43;34.42
28267;BME280;15525;45.568;5.448;2022-09-03T11:56:16;97751.28;;;32.34;34.87
28267;BME280;15525;45.568;5.448;2022-09-03T11:58:43;97745.06;;;32.53;34.74
28267;BME280;15525;45.568;5.448;2022-09-03T12:01:11;97744.81;;;31.87;35.91
28267;BME280;15525;45.568;5.448;2022-09-03T12:09:46;97748.06;;;31.79;36.82
28267;BME280;15525;45.568;5.448;2022-09-03T12:12:48;97747.16;;;33.37;34.60
28267;BME280;15525;45.568;5.448;2022-09-03T12:17:56;97744.09;;;33.90;33.56
28267;BME280;15525;45.568;5.448;2022-09-03T12:20:42;97730.97;;;33.71;33.99
28267;BME280;15525;45.568;5.448;2022-09-03T12:23:13;97730.66;;;33.69;33.68
28267;BME280;15525;45.568;5.448;2022-09-03T12:25:45;97735.91;;;33.44;33.52
28267;BME280;15525;45.568;5.448;2022-09-03T12:28:16;97734.47;;;32.94;34.72
28267;BME280;15525;45.568;5.448;2022-09-03T12:30:44;97737.78;;;32.36;35.66
28267;BME280;15525;45.568;5.448;2022-09-03T12:33:12;97730.91;;;32.17;35.83
28267;BME280;15525;45.568;5.448;2022-09-03T12:35:41;97720.34;;;32.35;35.63
28267;BME280;15525;45.568;5.448;2022-09-03T12:38:06;97731.91;;;32.34;35.92
28267;BME280;15525;45.568;5.448;2022-09-03T12:40:32;97726.00;;;32.78;35.05
28267;BME280;15525;45.568;5.448;2022-09-03T12:43:15;97724.97;;;33.37;34.48
28267;BME280;15525;45.568;5.448;2022-09-03T12:45:45;97729.06;;;33.68;34.39
28267;BME280;15525;45.568;5.448;2022-09-03T12:48:15;97720.75;;;33.49;34.08
28267;BME280;15525;45.568;5.448;2022-09-03T12:50:42;97734.56;;;32.64;35.06
28267;BME280;15525;45.568;5.448;2022-09-03T12:53:10;97737.03;;;32.05;35.78
28267;BME280;15525;45.568;5.448;2022-09-03T12:55:56;97716.22;;;32.20;35.56
28267;BME280;15525;45.568;5.448;2022-09-03T12:58:34;97726.31;;;32.07;35.69
28267;BME280;15525;45.568;5.448;2022-09-03T13:01:21;97712.97;;;32.25;35.30
28267;BME280;15525;45.568;5.448;2022-09-03T13:03:53;97727.72;;;31.92;35.70
28267;BME280;15525;45.568;5.448;2022-09-03T13:06:39;97717.44;;;32.19;34.09
28267;BME280;15525;45.568;5.448;2022-09-03T13:09:08;97722.22;;;32.45;34.34
28267;BME280;15525;45.568;5.448;2022-09-03T13:11:35;97713.03;;;32.48;33.94
28267;BME280;15525;45.568;5.448;2022-09-03T13:14:10;97724.59;;;32.66;33.97
28267;BME280;15525;45.568;5.448;2022-09-03T13:16:45;97721.97;;;32.33;34.06
28267;BME280;15525;45.568;5.448;2022-09-03T13:32:35;97710.53;;;31.74;33.56
28267;BME280;15525;45.568;5.448;2022-09-03T13:35:28;97689.38;;;32.40;33.00
28267;BME280;15525;45.568;5.448;2022-09-03T13:38:02;97681.31;;;32.72;32.71
28267;BME280;15525;45.568;5.448;2022-09-03T13:40:36;97680.34;;;33.05;33.09
28267;BME280;15525;45.568;5.448;2022-09-03T13:43:19;97677.69;;;33.96;31.19
28267;BME280;15525;45.568;5.448;2022-09-03T13:45:55;97674.97;;;33.37;31.53
28267;BME280;15525;45.568;5.448;2022-09-03T13:48:33;97660.56;;;33.03;32.21
28267;BME280;15525;45.568;5.448;2022-09-03T13:59:29;97642.47;;;32.53;33.01
28267;BME280;15525;45.568;5.448;2022-09-03T14:12:48;97631.50;;;33.66;30.86
28267;BME280;15525;45.568;5.448;2022-09-03T14:15:40;97633.31;;;35.01;29.60
28267;BME280;15525;45.568;5.448;2022-09-03T14:21:12;97654.13;;;33.65;31.13
28267;BME280;15525;45.568;5.448;2022-09-03T14:23:58;97670.81;;;33.06;31.85
28267;BME280;15525;45.568;5.448;2022-09-03T14:26:31;97670.53;;;32.78;31.88
28267;BME280;15525;45.568;5.448;2022-09-03T14:29:29;97674.34;;;33.30;31.75
28267;BME280;15525;45.568;5.448;2022-09-03T14:37:43;97672.53;;;33.00;32.27
28267;BME280;15525;45.568;5.448;2022-09-03T14:40:21;97660.72;;;32.73;32.69
28267;BME280;15525;45.568;5.448;2022-09-03T14:57:15;97657.09;;;32.30;33.38
28267;BME280;15525;45.568;5.448;2022-09-03T15:00:41;97661.28;;;32.15;32.72
28267;BME280;15525;45.568;5.448;2022-09-03T15:06:45;97666.56;;;32.79;32.57
28267;BME280;15525;45.568;5.448;2022-09-03T15:12:15;97661.66;;;32.63;32.58
28267;BME280;15525;45.568;5.448;2022-09-03T15:14:59;97665.66;;;32.62;32.60
28267;BME280;15525;45.568;5.448;2022-09-03T15:20:48;97654.16;;;34.16;31.32
28267;BME280;15525;45.568;5.448;2022-09-03T15:29:21;97653.63;;;33.70;31.89
28267;BME280;15525;45.568;5.448;2022-09-03T15:31:51;97651.38;;;33.45;31.77
28267;BME280;15525;45.568;5.448;2022-09-03T15:37:20;97670.28;;;32.92;32.25
28267;BME280;15525;45.568;5.448;2022-09-03T15:39:57;97678.25;;;32.90;31.97
28267;BME280;15525;45.568;5.448;2022-09-03T15:42:28;97692.41;;;32.49;32.29
28267;BME280;15525;45.568;5.448;2022-09-03T15:45:01;97699.44;;;31.74;32.80
28267;BME280;15525;45.568;5.448;2022-09-03T15:50:15;97698.53;;;31.54;33.52
28267;BME280;15525;45.568;5.448;2022-09-03T16:03:11;97712.66;;;30.89;34.02
28267;BME280;15525;45.568;5.448;2022-09-03T16:05:47;97707.06;;;30.96;33.98
28267;BME280;15525;45.568;5.448;2022-09-03T16:08:45;97697.63;;;30.94;33.96
28267;BME280;15525;45.568;5.448;2022-09-03T16:11:22;97706.34;;;30.45;34.47
28267;BME280;15525;45.568;5.448;2022-09-03T16:14:20;97705.03;;;30.05;34.66
28267;BME280;15525;45.568;5.448;2022-09-03T16:19:46;97707.34;;;30.17;34.48
28267;BME280;15525;45.568;5.448;2022-09-03T16:22:25;97713.75;;;30.55;33.94
28267;BME280;15525;45.568;5.448;2022-09-03T16:25:01;97711.19;;;30.78;33.28
28267;BME280;15525;45.568;5.448;2022-09-03T16:27:34;97704.09;;;30.77;33.08
28267;BME280;15525;45.568;5.448;2022-09-03T16:30:11;97704.25;;;30.59;33.96
28267;BME280;15525;45.568;5.448;2022-09-03T16:32:49;97703.22;;;30.43;33.73
28267;BME280;15525;45.568;5.448;2022-09-03T16:38:04;97698.38;;;29.99;34.08
28267;BME280;15525;45.568;5.448;2022-09-03T16:40:54;97691.88;;;30.27;33.63
28267;BME280;15525;45.568;5.448;2022-09-03T16:57:01;97698.88;;;30.38;34.33
28267;BME280;15525;45.568;5.448;2022-09-03T17:00:04;97691.66;;;30.00;33.77